aviador You're here:

KMLB Decoded Metar

MELBOURNE in FL, USA
Report Time2018-07-18 22:53:00
UTC Time2018-07-18 23:51:17
Flight Rules vfr VFR
Wind260° at 05 kt
W.Decomp.*RWY 27: 5.0 kt HW 0.3 kt LCW
RWY 23: 4.0 kt HW 3.0 kt RCW
W.Rank260° ranks 31
Current wind is below 260° avg. (7.0)
Visibility9999 m
Phenomena:N/A
Clouds:N/A
Expected CloudBase > 2,000 ft AGL from Temp-Dew spread
CeilingNone
Temp29°C (ISA +14)
Dew Point24°C (74% RH)
Heat Index33.5°C
QNH1015 hPa
Density Alt1,975 ft
Elevation36 ft
Report Wrong Elevation
Raw Report
METAR KMLB 182253Z 26005KT 10SM CLR 29/24 A2997 RMK AO2 SLP148 T02940239=

Extra information for KMLB:More info

Metar Taf Metar & Taf Last 4 Metars F.Rules Stats Wind Profile Meteogram Temp Stats Airport Information Weather charts Add Link Nearby VenuesMetar ALERT Operation Metar Decoded Social comments

AIRNAV info for KMLB